Time;durP1;ratioP1;P1;durP2;ratioP2;P2;SDS_P1;SDS_P2;PMS_P1;PMS_P2;Temp;Humidity;BMP_temperature;BMP_pressure;BME280_temperature;BME280_humidity;BME280_pressure;Samples;Min_cycle;Max_cycle;Signal;HPM_P1;HPM_P2
2021/12/16 00:02:19;;;;;;;0.30;0.30;;;;;;;22.93;31.81;98236.41;5027923;28;20121;-28
2021/12/16 00:07:36;;;;;;;0.30;0.30;;;;;;;22.93;31.56;98236.41;5027815;28;20057;-28
2021/12/16 00:10:30;;;;;;;0.30;0.30;;;;;;;22.93;31.89;98244.25;5026535;28;20037;-28
2021/12/16 00:31:51;;;;;;;0.20;0.20;;;;;;;22.93;31.83;98238.13;5027515;28;20206;-30
2021/12/16 00:34:16;;;;;;;0.75;0.40;;;;;;;22.92;31.72;98241.66;5030019;28;20126;-28
2021/12/16 00:36:43;;;;;;;0.20;0.10;;;;;;;22.92;31.79;98237.25;5028047;28;20550;-31
2021/12/16 00:39:32;;;;;;;0.30;0.30;;;;;;;22.92;31.79;98242.50;5029200;28;20043;-30
2021/12/16 00:42:03;;;;;;;0.20;0.20;;;;;;;22.92;31.52;98237.25;5028529;28;20065;-33
2021/12/16 00:49:39;;;;;;;0.32;0.30;;;;;;;22.92;31.71;98242.50;5026599;28;20488;-33
2021/12/16 00:54:57;;;;;;;0.40;0.40;;;;;;;22.92;31.51;98242.50;5026426;28;20572;-30
2021/12/16 00:57:23;;;;;;;0.40;0.40;;;;;;;22.92;31.74;98241.66;5027854;28;20031;-34
2021/12/16 00:59:50;;;;;;;0.30;0.30;;;;;;;22.91;31.64;98246.00;5027937;28;20029;-34
2021/12/16 01:34:57;;;;;;;0.25;0.25;;;;;;;22.90;31.72;98249.50;5030598;28;20059;-33
2021/12/16 01:45:32;;;;;;;0.32;0.30;;;;;;;22.90;31.65;98248.63;5031819;28;20048;-32
2021/12/16 01:50:43;;;;;;;0.20;0.20;;;;;;;22.90;31.67;98256.47;5032128;28;20568;-32
2021/12/16 01:55:59;;;;;;;0.20;0.20;;;;;;;22.90;31.75;98259.97;5033538;28;20035;-35
2021/12/16 01:58:27;;;;;;;0.30;0.30;;;;;;;22.90;31.86;98249.50;5030313;28;20030;-31
2021/12/16 02:01:08;;;;;;;0.25;0.25;;;;;;;22.90;31.76;98254.75;5027811;28;20025;-34
2021/12/16 02:03:42;;;;;;;0.28;0.28;;;;;;;22.91;31.49;98253.00;5033141;28;20021;-35
2021/12/16 02:08:50;;;;;;;0.30;0.30;;;;;;;22.90;31.73;98254.75;5030420;28;20036;-31
2021/12/16 02:11:38;;;;;;;0.28;0.28;;;;;;;22.90;31.56;98253.88;5026857;28;20037;-30
2021/12/16 02:28:21;;;;;;;0.20;0.20;;;;;;;22.89;31.53;98241.69;5027129;28;20835;-32
2021/12/16 02:35:47;;;;;;;0.40;0.40;;;;;;;22.88;31.69;98225.13;5028154;28;20116;-35
2021/12/16 02:38:16;;;;;;;0.32;0.32;;;;;;;22.88;31.39;98230.38;5030865;28;20545;-33
2021/12/16 02:40:42;;;;;;;0.40;0.40;;;;;;;22.89;31.54;98232.13;5029802;28;20037;-34
2021/12/16 02:43:38;;;;;;;0.20;0.20;;;;;;;22.89;31.68;98232.13;5029380;28;20033;-31
2021/12/16 02:48:39;;;;;;;0.43;0.30;;;;;;;22.89;31.62;98224.28;5031278;28;20024;-32
2021/12/16 02:51:14;;;;;;;0.30;0.30;;;;;;;22.90;31.75;98225.13;5030485;28;20025;-34
2021/12/16 02:53:51;;;;;;;0.30;0.30;;;;;;;22.89;31.80;98216.44;5029492;28;20037;-31
2021/12/16 02:56:17;;;;;;;0.30;0.30;;;;;;;22.88;31.73;98225.13;5029352;28;20816;-32
2021/12/16 02:58:44;;;;;;;0.30;0.30;;;;;;;22.89;31.56;98226.88;5025663;28;20029;-30
2021/12/16 03:01:16;;;;;;;0.17;0.17;;;;;;;22.89;31.59;98224.28;5028673;28;20246;-31
2021/12/16 03:03:42;;;;;;;0.28;0.28;;;;;;;22.90;31.71;98228.59;5027978;28;20028;-35
2021/12/16 03:06:08;;;;;;;0.30;0.30;;;;;;;22.89;31.84;98226.88;5028751;28;20083;-33
2021/12/16 03:08:35;;;;;;;0.30;0.30;;;;;;;22.90;31.50;98217.28;5029917;28;20087;-31
2021/12/16 03:14:16;;;;;;;0.20;0.20;;;;;;;22.90;31.55;98219.88;5032135;28;20031;-35
2021/12/16 03:16:46;;;;;;;0.30;0.30;;;;;;;22.90;31.59;98233.84;5030515;28;20566;-33
2021/12/16 03:19:22;;;;;;;0.20;0.20;;;;;;;22.90;31.58;98231.22;5028447;28;20121;-30
2021/12/16 03:21:52;;;;;;;0.20;0.20;;;;;;;22.89;31.50;98232.13;5037087;28;20454;-24
2021/12/16 03:28:10;;;;;;;0.20;0.20;;;;;;;22.90;31.80;98228.59;5026166;28;20928;-33
2021/12/16 03:37:18;;;;;;;0.30;0.30;;;;;;;22.89;31.52;98232.13;5026504;28;20142;-33
2021/12/16 03:40:08;;;;;;;0.40;0.30;;;;;;;22.88;31.80;98230.38;5026928;28;20029;-31
2021/12/16 03:42:35;;;;;;;0.30;0.30;;;;;;;22.89;31.72;98226.88;5029493;28;20111;-33
2021/12/16 03:48:16;;;;;;;0.40;0.40;;;;;;;22.88;31.58;98240.81;5026731;28;20052;-34
2021/12/16 03:50:41;;;;;;;0.45;0.30;;;;;;;22.88;31.75;98240.81;5028742;28;20040;-31
2021/12/16 03:53:13;;;;;;;0.30;0.30;;;;;;;22.88;31.74;98235.59;5030602;28;20439;-33
2021/12/16 03:55:38;;;;;;;;;;;;;;;22.88;31.84;98235.59;5026514;28;20118;-34
2021/12/16 03:58:04;;;;;;;0.30;0.30;;;;;;;22.86;31.61;98247.84;5044495;28;19912;-32
2021/12/16 04:00:32;;;;;;;0.52;0.30;;;;;;;22.88;31.60;98256.50;5028367;28;20676;-30
2021/12/16 04:02:58;;;;;;;0.50;0.50;;;;;;;22.87;31.66;98257.41;5026052;28;20060;-32
2021/12/16 04:05:23;;;;;;;0.40;0.40;;;;;;;22.87;31.51;98254.78;5024819;28;20047;-32
2021/12/16 04:07:49;;;;;;;0.50;0.50;;;;;;;22.87;31.68;98254.78;5028438;28;20072;-32
2021/12/16 04:10:22;;;;;;;0.45;0.45;;;;;;;22.86;31.56;98250.47;5025282;28;20022;-34
2021/12/16 04:12:49;;;;;;;0.32;0.32;;;;;;;22.87;31.63;98252.16;5024918;28;20106;-28
2021/12/16 04:15:15;;;;;;;0.60;0.50;;;;;;;22.87;31.54;98244.34;5029920;28;20021;-34
2021/12/16 04:17:40;;;;;;;0.30;0.30;;;;;;;22.88;31.57;98239.97;5027304;28;20040;-34
2021/12/16 04:20:08;;;;;;;0.50;0.50;;;;;;;22.88;31.76;98250.44;5026080;28;20392;-34
2021/12/16 04:22:37;;;;;;;0.30;0.30;;;;;;;22.88;31.61;98246.03;5027422;28;20149;-28
2021/12/16 04:25:06;;;;;;;0.75;0.52;;;;;;;22.87;31.73;98252.16;5030733;28;20551;-32
2021/12/16 04:27:32;;;;;;;0.20;0.20;;;;;;;22.88;31.78;98247.81;5025520;28;21000;-30
2021/12/16 04:29:57;;;;;;;0.50;0.50;;;;;;;22.88;31.65;98256.50;5024903;28;20254;-33
2021/12/16 04:32:23;;;;;;;0.47;0.40;;;;;;;22.87;31.68;98244.34;5028495;28;20036;-32
2021/12/16 04:34:48;;;;;;;0.40;0.40;;;;;;;22.87;31.99;98249.56;5027618;28;20041;-33
2021/12/16 04:37:14;;;;;;;0.50;0.50;;;;;;;22.87;31.68;98244.34;5028026;28;20992;-29
2021/12/16 04:39:40;;;;;;;0.35;0.35;;;;;;;22.87;31.57;98244.34;5025504;28;20032;-24
2021/12/16 04:42:06;;;;;;;0.20;0.20;;;;;;;22.88;31.65;98247.81;5028750;28;20643;-32
2021/12/16 04:44:32;;;;;;;0.30;0.30;;;;;;;22.88;31.66;98246.03;5026047;28;20045;-32
2021/12/16 04:46:58;;;;;;;0.45;0.40;;;;;;;22.87;31.74;98246.94;5027533;28;20017;-35
2021/12/16 04:49:23;;;;;;;0.40;0.40;;;;;;;22.89;31.75;98250.41;5027358;28;20106;-35
2021/12/16 04:51:50;;;;;;;0.22;0.22;;;;;;;22.88;31.73;98250.44;5027540;28;20037;-31
2021/12/16 04:54:18;;;;;;;0.40;0.38;;;;;;;22.89;31.64;98255.63;5028943;28;20033;-36
2021/12/16 04:56:43;;;;;;;0.40;0.40;;;;;;;22.87;31.64;98244.34;5017559;28;20614;-32
2021/12/16 04:59:10;;;;;;;0.40;0.40;;;;;;;22.88;31.63;98259.13;5029441;28;20029;-31
2021/12/16 05:01:37;;;;;;;0.50;0.40;;;;;;;22.88;31.61;98251.28;5031049;28;20021;-37
2021/12/16 05:04:02;;;;;;;0.30;0.30;;;;;;;22.84;31.67;98252.25;5031074;28;20479;-33
2021/12/16 05:06:27;;;;;;;0.30;0.30;;;;;;;22.87;31.50;98265.25;5027681;28;20174;-38
2021/12/16 05:08:53;;;;;;;0.38;0.38;;;;;;;22.88;31.55;98266.97;5031642;28;20037;-35
2021/12/16 05:11:19;;;;;;;0.45;0.40;;;;;;;22.89;31.58;98262.59;5030799;28;20096;-33
2021/12/16 05:13:44;;;;;;;0.40;0.40;;;;;;;22.89;31.61;98273.94;5030473;28;20029;-36
2021/12/16 05:16:10;;;;;;;0.30;0.30;;;;;;;22.89;31.61;98271.31;5027908;28;20025;-36
2021/12/16 05:18:37;;;;;;;0.30;0.30;;;;;;;22.89;31.61;98273.94;5031013;28;20041;-32
2021/12/16 05:24:16;;;;;;;0.30;0.30;;;;;;;22.87;31.70;98267.84;5034890;28;20045;-35
2021/12/16 05:26:42;;;;;;;0.30;0.30;;;;;;;22.87;31.74;98270.47;5031350;28;20065;-35
2021/12/16 05:29:07;;;;;;;0.30;0.30;;;;;;;22.86;31.57;98279.22;5032844;28;20075;-34
2021/12/16 05:31:33;;;;;;;0.40;0.40;;;;;;;22.87;31.75;98285.31;5016877;28;20025;-35
2021/12/16 05:33:58;;;;;;;0.25;0.25;;;;;;;22.87;31.58;98291.38;5031175;28;20503;-30
2021/12/16 05:36:24;;;;;;;0.40;0.40;;;;;;;22.86;31.65;98289.66;5031206;28;20136;-35
2021/12/16 05:38:49;;;;;;;0.38;0.38;;;;;;;22.87;31.71;98294.00;5029400;28;20391;-30
2021/12/16 05:41:17;;;;;;;0.57;0.28;;;;;;;22.87;31.79;98294.00;5028261;28;20079;-33
2021/12/16 05:43:43;;;;;;;0.28;0.28;;;;;;;22.88;31.76;98297.47;5029965;28;20490;-32
2021/12/16 05:46:09;;;;;;;0.35;0.35;;;;;;;22.86;31.45;98307.97;5030523;28;20598;-36
2021/12/16 05:48:37;;;;;;;0.30;0.30;;;;;;;22.88;31.74;98314.00;5010782;28;20082;-31
2021/12/16 05:51:11;;;;;;;0.10;0.10;;;;;;;22.87;31.59;98317.53;5027506;28;20116;-32
2021/12/16 05:53:36;;;;;;;0.30;0.30;;;;;;;22.87;31.46;98317.53;5031256;28;20029;-31
2021/12/16 05:56:02;;;;;;;0.20;0.20;;;;;;;22.87;31.63;98316.69;5029422;28;20642;-30
2021/12/16 05:58:28;;;;;;;0.55;0.28;;;;;;;22.87;31.52;98321.91;5026972;28;20029;-34
2021/12/16 06:00:57;;;;;;;0.30;0.30;;;;;;;22.87;31.53;98333.19;5029044;28;20053;-33
2021/12/16 06:03:23;;;;;;;0.20;0.20;;;;;;;22.87;31.78;98333.19;5027414;28;20048;-32
2021/12/16 06:05:49;;;;;;;0.32;0.32;;;;;;;22.86;31.52;98334.09;5026792;28;20503;-32
2021/12/16 06:08:14;;;;;;;0.28;0.28;;;;;;;22.86;31.77;98331.47;5030126;28;20021;-34
2021/12/16 06:13:17;;;;;;;0.15;0.15;;;;;;;22.88;31.53;98334.94;5013725;28;20087;-30
2021/12/16 06:26:41;;;;;;;0.28;0.28;;;;;;;22.85;31.59;98321.94;5028481;28;20130;-35
2021/12/16 06:29:07;;;;;;;0.32;0.32;;;;;;;22.86;31.77;98326.25;5028795;28;20039;-32
2021/12/16 06:31:32;;;;;;;0.50;0.40;;;;;;;22.86;31.53;98336.72;5028790;28;20028;-29
2021/12/16 06:33:57;;;;;;;0.35;0.30;;;;;;;22.85;31.58;98332.38;5029025;28;20029;-32
2021/12/16 06:36:23;;;;;;;0.40;0.40;;;;;;;22.85;31.63;98329.78;5029899;28;20091;-32
2021/12/16 06:38:48;;;;;;;0.40;0.40;;;;;;;22.85;31.50;98337.59;5030504;28;20021;-36
2021/12/16 06:41:14;;;;;;;0.22;0.22;;;;;;;22.86;31.58;98336.72;5026522;28;20731;-30
2021/12/16 06:43:40;;;;;;;0.35;0.35;;;;;;;22.87;31.63;98332.38;5027840;28;20016;-31
2021/12/16 06:46:10;;;;;;;0.30;0.30;;;;;;;22.86;31.74;98331.47;5028896;28;20120;-32
2021/12/16 06:48:39;;;;;;;0.20;0.20;;;;;;;22.86;31.58;98325.38;5028427;28;20033;-33
2021/12/16 06:51:10;;;;;;;0.30;0.30;;;;;;;22.85;31.54;98337.59;5027028;28;20115;-32
2021/12/16 06:54:03;;;;;;;0.30;0.30;;;;;;;22.86;31.49;98339.31;5027266;28;20136;-34
2021/12/16 06:56:44;;;;;;;0.30;0.30;;;;;;;22.85;31.72;98345.44;5030600;28;20056;-32
2021/12/16 06:59:21;;;;;;;0.30;0.30;;;;;;;22.85;31.69;98335.00;5027636;28;20029;-31
2021/12/16 07:02:01;;;;;;;3.10;0.60;;;;;;;22.81;31.70;98338.53;5024126;28;20594;-35
2021/12/16 07:04:26;;;;;;;0.30;0.30;;;;;;;22.86;31.74;98351.53;5027559;28;20060;-34
2021/12/16 07:06:51;;;;;;;0.20;0.20;;;;;;;22.84;31.66;98349.81;5027567;28;20492;-28
2021/12/16 07:09:17;;;;;;;0.30;0.30;;;;;;;22.86;31.43;98347.16;5028624;28;20044;-33
2021/12/16 07:11:44;;;;;;;0.20;0.20;;;;;;;22.86;31.63;98361.97;5028647;28;20503;-31
2021/12/16 07:14:14;;;;;;;0.45;0.45;;;;;;;22.86;31.66;98352.41;5027726;28;20579;-35
2021/12/16 07:16:39;;;;;;;0.32;0.32;;;;;;;22.85;31.74;98358.53;5030222;28;20035;-33
2021/12/16 07:19:04;;;;;;;0.30;0.30;;;;;;;22.86;31.62;98364.59;5027122;28;20028;-32
2021/12/16 07:21:37;;;;;;;0.22;0.22;;;;;;;22.85;31.59;98361.13;5024334;28;20037;-31
2021/12/16 07:24:06;;;;;;;0.35;0.35;;;;;;;22.85;31.65;98363.75;5029329;28;20041;-33
2021/12/16 07:26:32;;;;;;;0.68;0.68;;;;;;;22.85;31.51;98361.13;5028713;28;20021;-33
2021/12/16 07:28:57;;;;;;;0.82;0.40;;;;;;;22.85;31.48;98358.53;5024977;28;20480;-35
2021/12/16 07:31:22;;;;;;;0.30;0.30;;;;;;;22.86;31.75;98362.84;5029095;28;20028;-31
2021/12/16 07:33:48;;;;;;;0.32;0.32;;;;;;;22.85;31.67;98361.13;5029296;28;20080;-33
2021/12/16 07:36:18;;;;;;;0.57;0.57;;;;;;;22.85;31.77;98366.38;5026872;28;20383;-29
2021/12/16 07:38:44;;;;;;;0.90;0.50;;;;;;;22.84;31.54;98362.03;5029326;28;20287;-33
2021/12/16 07:41:09;;;;;;;0.22;0.22;;;;;;;22.85;31.70;98371.59;5026405;28;20036;-29
2021/12/16 07:46:19;;;;;;;0.30;0.30;;;;;;;22.85;31.56;98368.97;5026298;28;20130;-28
2021/12/16 07:48:44;;;;;;;0.52;0.52;;;;;;;22.84;31.47;98375.09;5025510;28;20025;-35
2021/12/16 07:51:11;;;;;;;0.63;0.63;;;;;;;22.84;31.70;98372.50;5028359;28;20073;-32
2021/12/16 07:53:36;;;;;;;0.63;0.50;;;;;;;22.84;31.54;98375.94;5024173;28;20152;-36
2021/12/16 07:56:02;;;;;;;0.40;0.40;;;;;;;22.84;31.69;98383.78;5028723;28;20026;-28
2021/12/16 07:58:28;;;;;;;0.22;0.22;;;;;;;22.86;31.71;98388.13;5026451;28;20029;-35
2021/12/16 08:00:53;;;;;;;0.60;0.60;;;;;;;22.84;31.44;98385.56;5028161;28;20594;-31
2021/12/16 08:03:19;;;;;;;0.35;0.35;;;;;;;22.86;31.77;98388.13;5026488;28;20021;-35
2021/12/16 08:05:50;;;;;;;0.70;0.52;;;;;;;22.85;31.69;98392.50;5025266;28;20093;-29
2021/12/16 08:08:16;;;;;;;1.08;0.95;;;;;;;22.84;31.64;98390.78;5025797;28;20051;-29
2021/12/16 08:10:41;;;;;;;0.50;0.50;;;;;;;22.84;31.68;98394.25;5025441;28;20579;-33
2021/12/16 08:13:07;;;;;;;0.73;0.32;;;;;;;22.85;31.46;98397.72;5029012;28;20107;-35
2021/12/16 08:15:32;;;;;;;0.32;0.32;;;;;;;22.86;31.60;98406.41;5028119;28;20501;-33
2021/12/16 08:17:58;;;;;;;0.40;0.40;;;;;;;22.85;31.48;98413.41;5026496;28;20044;-34
2021/12/16 08:20:24;;;;;;;0.63;0.63;;;;;;;22.85;31.53;98413.41;5026268;28;20029;-32
2021/12/16 08:22:50;;;;;;;0.45;0.30;;;;;;;22.84;31.51;98417.75;5027698;28;20046;-35
2021/12/16 08:25:17;;;;;;;0.40;0.40;;;;;;;22.86;31.48;98411.63;5023212;28;20037;-34
2021/12/16 08:27:42;;;;;;;0.40;0.40;;;;;;;22.86;31.66;98422.09;5028025;28;20475;-32
2021/12/16 08:30:09;;;;;;;0.52;0.50;;;;;;;22.85;31.58;98431.72;5027330;28;20113;-35
2021/12/16 08:32:34;;;;;;;0.93;0.40;;;;;;;22.86;31.56;98424.72;5025146;28;20029;-33
2021/12/16 08:35:00;;;;;;;0.40;0.40;;;;;;;22.85;31.62;98423.88;5039843;28;20721;-34
2021/12/16 08:37:25;;;;;;;0.35;0.35;;;;;;;22.86;31.56;98424.72;5032847;28;20048;-34
2021/12/16 08:39:52;;;;;;;0.50;0.50;;;;;;;22.85;31.80;98423.88;5030660;28;20025;-34
2021/12/16 08:42:18;;;;;;;0.75;0.60;;;;;;;22.84;31.49;98422.16;5030684;28;20698;-29
2021/12/16 08:44:43;;;;;;;0.50;0.40;;;;;;;22.85;31.78;98423.88;5033654;28;20040;-32
2021/12/16 08:47:11;;;;;;;0.50;0.50;;;;;;;22.86;31.63;98422.09;5027150;28;20025;-33
2021/12/16 08:49:36;;;;;;;0.45;0.40;;;;;;;22.86;31.68;98419.47;5031827;28;20119;-35
2021/12/16 08:52:05;;;;;;;0.43;0.43;;;;;;;22.85;31.77;98421.25;5028802;28;20036;-29
2021/12/16 08:54:31;;;;;;;0.38;0.28;;;;;;;22.86;31.69;98429.94;5038544;28;20052;-34
2021/12/16 08:56:57;;;;;;;0.63;0.63;;;;;;;22.85;31.54;98439.56;5031769;28;20478;-36
2021/12/16 08:59:24;;;;;;;0.60;0.60;;;;;;;22.85;31.40;98434.31;5027167;28;20030;-33
2021/12/16 09:01:50;;;;;;;0.50;0.50;;;;;;;22.84;31.67;98432.59;5030321;28;20398;-27
2021/12/16 09:04:16;;;;;;;0.40;0.40;;;;;;;22.84;31.60;98432.59;5028411;28;20033;-33
2021/12/16 09:06:42;;;;;;;0.20;0.20;;;;;;;22.85;31.54;98434.31;5027789;28;20759;-28
2021/12/16 09:09:08;;;;;;;0.20;0.20;;;;;;;22.86;31.48;98443.00;5032542;28;20017;-26
2021/12/16 09:11:38;;;;;;;0.20;0.20;;;;;;;22.85;31.80;98439.56;5031662;28;20685;-34
2021/12/16 09:14:04;;;;;;;0.50;0.50;;;;;;;22.85;31.75;98434.31;5031779;28;20273;-29
2021/12/16 09:16:30;;;;;;;0.77;0.77;;;;;;;22.86;31.55;98441.28;5019007;28;20025;-29
2021/12/16 09:18:56;;;;;;;0.75;0.60;;;;;;;22.86;31.70;98441.28;5029493;28;20027;-32
2021/12/16 09:21:27;;;;;;;0.60;0.60;;;;;;;22.86;31.57;98438.66;5027537;28;20020;-30
2021/12/16 09:23:52;;;;;;;0.63;0.63;;;;;;;22.87;31.76;98444.75;5028821;28;20068;-33
2021/12/16 09:26:18;;;;;;;0.60;0.60;;;;;;;22.86;31.54;98435.16;5028207;28;20499;-33
2021/12/16 09:28:43;;;;;;;0.40;0.40;;;;;;;22.85;31.71;98434.31;5031092;28;20030;-35
2021/12/16 09:31:11;;;;;;;0.77;0.43;;;;;;;22.85;31.70;98442.16;5030452;28;20032;-33
2021/12/16 09:33:43;;;;;;;0.65;0.65;;;;;;;22.86;31.66;98450.84;5027272;28;20025;-30
2021/12/16 09:36:10;;;;;;;0.65;0.63;;;;;;;22.85;31.57;98447.41;5029848;28;20441;-31
2021/12/16 09:38:36;;;;;;;0.40;0.40;;;;;;;22.86;31.77;98445.63;5027399;28;20504;-30
2021/12/16 09:41:01;;;;;;;0.38;0.38;;;;;;;22.86;31.62;98456.06;5028836;28;20068;-32
2021/12/16 09:43:29;;;;;;;0.30;0.30;;;;;;;22.85;31.66;98460.47;5031431;28;20047;-34
2021/12/16 09:45:57;;;;;;;0.25;0.25;;;;;;;22.87;31.65;98468.28;5028902;28;20419;-31
2021/12/16 09:48:22;;;;;;;0.75;0.50;;;;;;;22.87;31.51;98458.69;5028396;28;20022;-32
2021/12/16 09:50:48;;;;;;;0.40;0.40;;;;;;;22.86;31.52;98459.56;5026536;28;20038;-33
2021/12/16 09:53:13;;;;;;;0.30;0.30;;;;;;;22.87;31.58;98456.06;5033417;28;20079;-32
2021/12/16 09:55:39;;;;;;;0.45;0.45;;;;;;;22.88;31.87;98459.56;5031040;28;20036;-31
2021/12/16 09:58:05;;;;;;;0.57;0.57;;;;;;;22.87;31.78;98457.84;5029518;28;20037;-31
2021/12/16 10:00:32;;;;;;;0.35;0.35;;;;;;;22.87;31.80;98461.28;5024863;28;20033;-28
2021/12/16 10:02:58;;;;;;;0.70;0.70;;;;;;;22.88;31.60;98463.00;5032747;28;20064;-33
2021/12/16 10:05:23;;;;;;;0.43;0.43;;;;;;;22.87;31.70;98460.44;5030461;28;20032;-30
2021/12/16 10:07:49;;;;;;;0.57;0.57;;;;;;;22.87;31.44;98453.44;5031268;28;20029;-28
2021/12/16 10:10:16;;;;;;;0.57;0.57;;;;;;;22.86;31.91;98451.72;5026457;28;20040;-31
2021/12/16 10:12:45;;;;;;;0.45;0.45;;;;;;;22.87;31.64;98457.84;5028814;28;20051;-33
2021/12/16 10:17:59;;;;;;;0.77;0.60;;;;;;;22.82;31.66;98452.66;5030102;28;20160;-31
2021/12/16 10:20:29;;;;;;;0.52;0.52;;;;;;;22.87;31.71;98453.44;5026467;28;20032;-29
2021/12/16 10:23:05;;;;;;;0.52;0.50;;;;;;;22.87;31.54;98450.84;5030544;28;20040;-31
2021/12/16 10:25:41;;;;;;;0.50;0.50;;;;;;;22.87;31.58;98447.38;5030326;28;20033;-34
2021/12/16 10:28:07;;;;;;;0.50;0.50;;;;;;;22.88;31.78;98451.72;5029029;28;20037;-32
2021/12/16 10:30:42;;;;;;;0.30;0.30;;;;;;;22.87;31.90;98452.59;5030090;28;20048;-32
2021/12/16 10:33:14;;;;;;;0.40;0.40;;;;;;;22.87;31.64;98447.38;5026125;28;20040;-30
2021/12/16 10:35:41;;;;;;;0.50;0.50;;;;;;;22.87;31.71;98453.44;5028793;28;20033;-35
2021/12/16 10:38:07;;;;;;;0.50;0.50;;;;;;;22.88;31.60;98460.41;5029842;28;20055;-35
2021/12/16 10:40:52;;;;;;;0.45;0.45;;;;;;;22.86;31.80;98451.72;5026104;28;20029;-29
2021/12/16 10:43:37;;;;;;;0.77;0.50;;;;;;;22.87;31.75;98458.69;5029328;28;20695;-30
2021/12/16 10:46:12;;;;;;;0.60;0.50;;;;;;;22.87;31.86;98457.84;5030272;28;20033;-26
2021/12/16 10:48:42;;;;;;;0.50;0.50;;;;;;;22.87;31.83;98463.91;5032390;28;20025;-30
2021/12/16 10:51:22;;;;;;;0.40;0.40;;;;;;;22.87;31.75;98463.91;5026388;28;20293;-33
2021/12/16 10:54:02;;;;;;;0.43;0.40;;;;;;;22.86;31.81;98454.34;5027927;28;20297;-31
2021/12/16 10:56:27;;;;;;;0.40;0.40;;;;;;;22.87;31.82;98463.91;5027165;28;20169;-29
2021/12/16 10:59:12;;;;;;;0.40;0.38;;;;;;;22.86;31.94;98456.06;5028562;28;20025;-32
2021/12/16 11:01:40;;;;;;;0.52;0.45;;;;;;;22.87;31.76;98452.59;5027391;28;20030;-29
2021/12/16 11:04:14;;;;;;;0.90;0.60;;;;;;;22.86;31.67;98456.97;5025955;28;20044;-28
2021/12/16 11:06:43;;;;;;;0.50;0.40;;;;;;;22.87;31.80;98463.91;5026371;28;20570;-34
2021/12/16 11:09:33;;;;;;;0.40;0.40;;;;;;;22.87;31.79;98455.22;5026197;28;20555;-34
2021/12/16 11:12:29;;;;;;;0.30;0.30;;;;;;;22.88;31.71;98455.16;5027970;28;20072;-33
2021/12/16 11:15:03;;;;;;;0.40;0.40;;;;;;;22.87;31.80;98448.22;5029008;28;20116;-35
2021/12/16 11:17:38;;;;;;;0.40;0.40;;;;;;;22.88;31.90;98455.16;5023934;28;20035;-36
2021/12/16 11:20:03;;;;;;;0.45;0.45;;;;;;;22.89;31.87;98456.03;5045135;28;20083;-35
2021/12/16 11:22:31;;;;;;;0.43;0.40;;;;;;;22.88;31.63;98449.09;5027135;28;20033;-32
2021/12/16 11:24:57;;;;;;;0.52;0.40;;;;;;;22.87;31.80;98453.44;5023758;28;20057;-33
2021/12/16 11:27:26;;;;;;;0.60;0.43;;;;;;;22.89;31.68;98456.91;5026719;28;20032;-35
2021/12/16 11:29:51;;;;;;;0.82;0.45;;;;;;;22.89;31.71;98451.69;5030743;28;20029;-29
2021/12/16 11:32:46;;;;;;;0.60;0.50;;;;;;;22.89;31.93;98462.16;5026880;28;20025;-35
2021/12/16 11:35:26;;;;;;;0.98;0.50;;;;;;;22.89;31.93;98456.91;5020210;28;20028;-30
2021/12/16 11:37:52;;;;;;;0.63;0.50;;;;;;;22.89;31.92;98462.16;5028363;28;20034;-31
2021/12/16 11:40:18;;;;;;;1.05;0.57;;;;;;;22.89;31.65;98459.53;5030236;28;20096;-26
2021/12/16 11:42:43;;;;;;;0.75;0.52;;;;;;;22.90;31.86;98466.47;5026163;28;20133;-36
2021/12/16 11:45:09;;;;;;;0.95;0.50;;;;;;;22.90;31.78;98466.47;5027253;28;20021;-32
2021/12/16 11:47:35;;;;;;;0.50;0.40;;;;;;;22.90;31.71;98463.00;5026955;28;20943;-30
2021/12/16 11:50:04;;;;;;;0.45;0.35;;;;;;;22.90;32.02;98463.88;5031407;28;20152;-32
2021/12/16 11:52:35;;;;;;;0.50;0.50;;;;;;;22.91;31.85;98462.13;5026967;28;20078;-35
2021/12/16 11:55:09;;;;;;;0.30;0.30;;;;;;;22.90;31.73;98461.25;5017343;28;20914;-30
2021/12/16 11:57:41;;;;;;;0.55;0.55;;;;;;;22.91;31.77;98460.38;5024190;28;20029;-29
2021/12/16 12:00:24;;;;;;;0.22;0.22;;;;;;;22.90;31.76;98466.47;5024289;28;20795;-31
2021/12/16 12:02:54;;;;;;;0.45;0.40;;;;;;;22.91;31.79;98465.59;5028288;28;20033;-27
2021/12/16 12:05:42;;;;;;;0.30;0.30;;;;;;;22.90;31.88;98461.25;5027574;28;20060;-32
2021/12/16 12:08:40;;;;;;;0.40;0.40;;;;;;;22.91;32.00;98464.75;5024616;28;20024;-36
2021/12/16 12:11:20;;;;;;;0.30;0.30;;;;;;;22.91;31.86;98460.38;5024998;28;20187;-33
2021/12/16 12:13:57;;;;;;;0.30;0.30;;;;;;;22.91;31.70;98457.75;5028861;28;20072;-32
2021/12/16 12:16:36;;;;;;;0.38;0.30;;;;;;;22.89;31.74;98456.91;5023609;28;20029;-36
2021/12/16 12:19:22;;;;;;;0.50;0.50;;;;;;;22.90;31.98;98453.41;5026760;28;20254;-33
2021/12/16 12:21:57;;;;;;;0.50;0.50;;;;;;;22.90;31.82;98453.41;5029977;28;20056;-30
2021/12/16 12:24:25;;;;;;;0.55;0.52;;;;;;;22.90;32.05;98453.41;5027865;28;20025;-35
2021/12/16 12:26:53;;;;;;;0.43;0.43;;;;;;;22.90;31.95;98442.97;5024555;28;20040;-36
2021/12/16 12:29:33;;;;;;;0.68;0.40;;;;;;;22.88;31.79;98434.25;5028189;28;20188;-33
2021/12/16 12:32:05;;;;;;;0.68;0.40;;;;;;;22.91;31.84;98441.22;5012382;28;20033;-31
2021/12/16 12:34:31;;;;;;;0.82;0.50;;;;;;;22.89;32.04;98441.25;5025595;28;20045;-31
2021/12/16 12:36:58;;;;;;;0.40;0.40;;;;;;;22.90;31.90;98432.50;5009938;28;20064;-33
2021/12/16 12:39:27;;;;;;;0.22;0.22;;;;;;;22.91;31.76;98434.22;5027298;28;20032;-30
2021/12/16 12:41:53;;;;;;;0.70;0.50;;;;;;;22.91;31.63;98426.38;5025889;28;20025;-32
2021/12/16 12:44:19;;;;;;;0.60;0.60;;;;;;;22.91;31.92;98429.00;5025747;28;20032;-32
2021/12/16 12:46:44;;;;;;;0.60;0.60;;;;;;;22.91;31.94;98422.91;5027429;28;20033;-33
2021/12/16 12:49:13;;;;;;;0.60;0.60;;;;;;;22.91;31.70;98423.75;5012191;28;20029;-26
2021/12/16 12:51:47;;;;;;;0.32;0.32;;;;;;;22.91;31.76;98412.47;5025623;28;20029;-29
2021/12/16 12:54:27;;;;;;;0.30;0.30;;;;;;;22.90;31.76;98422.03;5025205;28;20499;-29
2021/12/16 12:56:55;;;;;;;0.38;0.38;;;;;;;22.91;31.80;98409.84;5024450;28;20041;-31
2021/12/16 12:59:21;;;;;;;0.30;0.30;;;;;;;22.92;32.01;98419.41;5029683;28;20411;-32
2021/12/16 13:01:51;;;;;;;0.25;0.25;;;;;;;22.91;31.92;98408.06;5021563;28;20820;-32
2021/12/16 13:04:30;;;;;;;0.30;0.30;;;;;;;22.92;31.78;98419.41;5027893;28;20398;-32
2021/12/16 13:07:01;;;;;;;0.40;0.40;;;;;;;22.92;32.10;98420.25;5025782;28;20491;-34
2021/12/16 13:09:43;;;;;;;0.70;0.50;;;;;;;22.92;31.90;98419.41;5028682;28;20097;-33
2021/12/16 13:13:01;;;;;;;0.40;0.40;;;;;;;22.91;32.03;98422.91;5027649;28;20032;-32
2021/12/16 13:15:26;;;;;;;0.30;0.30;;;;;;;22.91;31.85;98426.38;5025131;28;20080;-28
2021/12/16 13:24:02;;;;;;;0.73;0.30;;;;;;;22.92;32.15;98430.72;5041122;28;20037;-33
2021/12/16 13:26:34;;;;;;;0.40;0.40;;;;;;;22.92;31.83;98440.31;5031632;28;20110;-31
2021/12/16 13:29:21;;;;;;;0.40;0.40;;;;;;;22.92;31.88;98435.09;5026538;28;20396;-32
2021/12/16 13:32:16;;;;;;;0.30;0.30;;;;;;;22.91;31.85;98434.22;5027542;28;20596;-36
2021/12/16 13:34:51;;;;;;;0.30;0.30;;;;;;;22.91;31.87;98423.75;5029915;28;20220;-33
2021/12/16 13:37:30;;;;;;;0.30;0.30;;;;;;;22.91;32.09;98423.75;5031668;28;20499;-32
2021/12/16 13:40:16;;;;;;;0.45;0.28;;;;;;;22.92;31.87;98425.47;5029413;28;20037;-30
2021/12/16 13:42:55;;;;;;;0.32;0.32;;;;;;;22.90;32.04;98427.28;5024561;28;20087;-32
2021/12/16 13:45:26;;;;;;;0.30;0.30;;;;;;;22.92;31.90;98427.25;5028578;28;20033;-34
2021/12/16 14:07:24;;;;;;;0.63;0.50;;;;;;;22.91;32.08;98444.69;5029424;28;20033;-35
2021/12/16 14:10:03;;;;;;;0.68;0.50;;;;;;;22.92;31.97;98446.41;5026598;28;20033;-34
2021/12/16 14:15:27;;;;;;;0.40;0.40;;;;;;;22.91;32.02;98457.75;5028862;28;20104;-30
2021/12/16 14:18:09;;;;;;;0.25;0.20;;;;;;;22.92;32.08;98461.25;5028695;28;20422;-33
2021/12/16 14:23:46;;;;;;;0.30;0.30;;;;;;;22.91;32.02;98459.53;5046842;28;20120;-30
2021/12/16 14:49:35;;;;;;;0.30;0.30;;;;;;;22.94;31.91;98476.00;5026043;28;20490;-28
2021/12/16 14:52:01;;;;;;;0.25;0.25;;;;;;;22.93;31.89;98474.28;5028954;28;20061;-32
2021/12/16 14:54:27;;;;;;;0.28;0.28;;;;;;;22.94;31.87;98478.63;5029152;28;20040;-35
2021/12/16 14:56:58;;;;;;;0.65;0.40;;;;;;;22.93;32.04;98471.69;5025681;28;20087;-28
2021/12/16 14:59:25;;;;;;;0.35;0.35;;;;;;;22.95;31.91;98476.84;5031065;28;20053;-34
2021/12/16 15:01:52;;;;;;;1.27;0.30;;;;;;;22.95;32.07;98471.63;5026040;28;20033;-28